createdAt,value
2023-05-28T00:00:55.219Z,14.472961
2023-05-28T00:02:02.915Z,14.45282
2023-05-28T00:03:11.742Z,14.45282
2023-05-28T00:04:21.310Z,14.432678
2023-05-28T00:05:28.904Z,14.432678
2023-05-28T00:06:38.598Z,14.412537
2023-05-28T00:07:47.287Z,14.442749
2023-05-28T00:08:54.962Z,14.432678
2023-05-28T00:10:04.657Z,14.412537
2023-05-28T00:11:14.297Z,14.412537
2023-05-28T00:12:22.962Z,14.412537
2023-05-28T00:13:32.702Z,14.412537
2023-05-28T00:14:40.361Z,14.45282
2023-05-28T00:15:50.031Z,14.432678
2023-05-28T00:16:59.700Z,14.432678
2023-05-28T00:18:07.403Z,14.412537
2023-05-28T00:19:17.058Z,14.372253
2023-05-28T00:20:25.742Z,14.352112
2023-05-28T00:21:34.387Z,14.352112
2023-05-28T00:22:44.041Z,14.33197
2023-05-28T00:23:53.707Z,14.251404
2023-05-28T00:25:03.367Z,14.20105
2023-05-28T00:26:12.088Z,14.180908
2023-05-28T00:27:20.730Z,14.150696
2023-05-28T00:28:30.465Z,14.110413
2023-05-28T00:29:40.070Z,14.100342
2023-05-28T00:30:48.787Z,14.0802
2023-05-28T00:31:58.574Z,14.049988
2023-05-28T00:33:06.128Z,14.070129
2023-05-28T00:34:15.998Z,14.070129
2023-05-28T00:35:24.641Z,14.049988
2023-05-28T00:36:32.309Z,13.999634
2023-05-28T00:37:41.979Z,13.969421
2023-05-28T00:38:50.651Z,13.94928
2023-05-28T00:39:59.321Z,13.929138
2023-05-28T00:41:09.048Z,13.888855
2023-05-28T00:42:17.709Z,13.848572
2023-05-28T00:43:27.356Z,13.808289
2023-05-28T00:44:36.020Z,13.808289
2023-05-28T00:45:44.734Z,13.768005
2023-05-28T00:46:54.408Z,13.717651
2023-05-28T00:48:03.073Z,13.677368
2023-05-28T00:49:11.707Z,13.627014
2023-05-28T00:50:21.507Z,13.596802
2023-05-28T00:51:29.017Z,13.566589
2023-05-28T00:52:38.675Z,13.486023
2023-05-28T00:53:46.312Z,13.465881
2023-05-28T00:54:55.973Z,13.455811
2023-05-28T00:56:04.642Z,13.375244
2023-05-28T00:57:12.318Z,13.345032
2023-05-28T00:58:22.002Z,13.345032
2023-05-28T00:59:31.641Z,13.334961
2023-05-28T01:00:41.322Z,13.365173
2023-05-28T01:01:51.033Z,13.375244
2023-05-28T01:02:59.700Z,13.385315
2023-05-28T01:04:09.425Z,13.365173
2023-05-28T01:05:18.000Z,13.345032
2023-05-28T01:06:26.652Z,13.334961
2023-05-28T01:07:36.344Z,13.314819
2023-05-28T01:08:45.018Z,13.274536
2023-05-28T01:09:52.652Z,13.274536
2023-05-28T01:11:02.341Z,13.234253
2023-05-28T01:12:12.035Z,13.224182
2023-05-28T01:13:21.690Z,13.224182
2023-05-28T01:14:30.387Z,13.224182
2023-05-28T01:15:40.076Z,13.234253
2023-05-28T01:16:49.849Z,13.254395
2023-05-28T01:17:58.476Z,13.254395
2023-05-28T01:19:08.141Z,13.204041
2023-05-28T01:20:17.859Z,13.183899
2023-05-28T01:21:26.532Z,13.153687
2023-05-28T01:22:36.177Z,13.133545
2023-05-28T01:23:44.941Z,13.113403
2023-05-28T01:24:53.615Z,13.113403
2023-05-28T01:26:03.270Z,13.123474
2023-05-28T01:27:10.932Z,13.113403
2023-05-28T01:28:19.591Z,13.153687
2023-05-28T01:29:29.310Z,13.133545
2023-05-28T01:30:37.992Z,13.123474
2023-05-28T01:31:47.605Z,13.133545
2023-05-28T01:32:56.280Z,13.113403
2023-05-28T01:34:03.935Z,13.093262
2023-05-28T01:35:13.606Z,13.052979
2023-05-28T01:36:22.237Z,13.032837
2023-05-28T01:37:31.905Z,13.042908
2023-05-28T01:38:41.554Z,13.012695
2023-05-28T01:39:50.291Z,13.012695
2023-05-28T01:40:59.940Z,13.032837
2023-05-28T01:42:08.610Z,13.032837
2023-05-28T01:43:19.290Z,13.083191
2023-05-28T01:44:28.963Z,13.083191
2023-05-28T01:45:36.648Z,13.113403
2023-05-28T01:46:46.427Z,13.093262
2023-05-28T01:47:56.040Z,13.083191
2023-05-28T01:49:04.636Z,13.042908
2023-05-28T01:50:13.296Z,12.972412
2023-05-28T01:51:23.032Z,12.9422
2023-05-28T01:52:31.717Z,12.911987
2023-05-28T01:53:41.398Z,12.901917
2023-05-28T01:54:49.072Z,12.911987
2023-05-28T01:55:57.741Z,12.932129
2023-05-28T01:57:07.418Z,12.911987
2023-05-28T01:58:15.100Z,12.9422
2023-05-28T01:59:24.781Z,12.911987
2023-05-28T02:00:33.453Z,12.861633
2023-05-28T02:01:41.148Z,12.861633
2023-05-28T02:02:50.855Z,12.861633
2023-05-28T02:04:00.549Z,12.851562
2023-05-28T02:05:09.212Z,12.851562
2023-05-28T02:06:18.890Z,12.801208
2023-05-28T02:07:26.534Z,12.781067
2023-05-28T02:08:36.195Z,12.7005
2023-05-28T02:09:44.866Z,12.640076
2023-05-28T02:10:53.556Z,12.56958
2023-05-28T02:12:03.296Z,12.529297
2023-05-28T02:13:11.965Z,12.44873
2023-05-28T02:14:21.644Z,12.388306
2023-05-28T02:15:31.335Z,12.358093
2023-05-28T02:16:41.022Z,12.277527
2023-05-28T02:17:50.751Z,12.267456
2023-05-28T02:19:00.428Z,12.237244
2023-05-28T02:20:10.096Z,12.217102
2023-05-28T02:21:19.701Z,12.19696
2023-05-28T02:22:27.363Z,12.176819
2023-05-28T02:23:36.052Z,12.126465
2023-05-28T02:24:45.742Z,12.146606
2023-05-28T02:25:53.702Z,12.176819
2023-05-28T02:27:03.123Z,12.217102
2023-05-28T02:28:11.776Z,12.307739
2023-05-28T02:29:19.460Z,12.388306
2023-05-28T02:30:29.133Z,12.458801
2023-05-28T02:31:36.834Z,12.468872
2023-05-28T02:32:45.447Z,12.468872
2023-05-28T02:33:55.127Z,12.458801
2023-05-28T02:35:02.827Z,12.418518
2023-05-28T02:36:12.513Z,12.398376
2023-05-28T02:37:22.189Z,12.388306
2023-05-28T02:38:29.848Z,12.31781
2023-05-28T02:39:39.503Z,12.287598
2023-05-28T02:40:47.155Z,12.217102
2023-05-28T02:41:55.865Z,12.207031
2023-05-28T02:43:05.547Z,12.166748
2023-05-28T02:44:14.239Z,12.116394
2023-05-28T02:45:23.951Z,12.096252
2023-05-28T02:46:32.663Z,12.086182
2023-05-28T02:47:41.341Z,12.06604
2023-05-28T02:48:50.981Z,12.086182
2023-05-28T02:49:58.614Z,12.035828
2023-05-28T02:51:07.340Z,12.055969
2023-05-28T02:52:16.992Z,12.015686
2023-05-28T02:53:25.659Z,11.965332
2023-05-28T02:54:35.328Z,11.93512
2023-05-28T02:55:44.010Z,11.884766
2023-05-28T02:56:53.687Z,11.834412
2023-05-28T02:58:02.346Z,11.844482
2023-05-28T02:59:11.185Z,11.81427
2023-05-28T03:00:20.852Z,11.834412
2023-05-28T03:01:28.578Z,11.81427
2023-05-28T03:02:38.190Z,11.784058
2023-05-28T03:03:47.912Z,11.733704
2023-05-28T03:04:55.557Z,11.723633
2023-05-28T03:06:05.209Z,11.663208
2023-05-28T03:07:14.928Z,11.663208
2023-05-28T03:08:23.563Z,11.733704
2023-05-28T03:09:33.243Z,11.753845
2023-05-28T03:10:41.971Z,11.834412
2023-05-28T03:11:50.729Z,11.93512
2023-05-28T03:13:00.612Z,11.93512
2023-05-28T03:14:10.015Z,11.93512
2023-05-28T03:15:19.673Z,11.884766
2023-05-28T03:16:28.356Z,11.834412
2023-05-28T03:17:36.991Z,11.834412
2023-05-28T03:18:46.653Z,11.81427
2023-05-28T03:19:54.296Z,11.81427
2023-05-28T03:21:03.967Z,11.804199
2023-05-28T03:22:13.617Z,11.773987
2023-05-28T03:23:22.314Z,11.733704
2023-05-28T03:24:31.940Z,11.723633
2023-05-28T03:25:40.587Z,11.703491
2023-05-28T03:26:49.241Z,11.723633
2023-05-28T03:27:58.902Z,11.804199
2023-05-28T03:29:07.638Z,11.804199
2023-05-28T03:30:16.336Z,11.834412
2023-05-28T03:31:26.974Z,11.864624
2023-05-28T03:32:35.674Z,11.914978
2023-05-28T03:33:45.343Z,12.015686
2023-05-28T03:34:55.002Z,12.035828
2023-05-28T03:36:03.659Z,12.086182
2023-05-28T03:37:13.336Z,12.086182
2023-05-28T03:38:21.997Z,12.086182
2023-05-28T03:39:31.725Z,12.126465
2023-05-28T03:40:41.339Z,12.146606
2023-05-28T03:41:49.021Z,12.166748
2023-05-28T03:42:58.804Z,12.19696
2023-05-28T03:44:07.464Z,12.207031
2023-05-28T03:45:15.136Z,12.217102
2023-05-28T03:46:24.836Z,12.247314
2023-05-28T03:47:32.457Z,12.247314
2023-05-28T03:48:41.089Z,12.277527
2023-05-28T03:49:50.750Z,12.277527
2023-05-28T03:50:59.460Z,12.267456
2023-05-28T03:52:09.139Z,12.247314
2023-05-28T03:53:18.799Z,12.207031
2023-05-28T03:54:27.437Z,12.237244
2023-05-28T03:55:37.109Z,12.307739
2023-05-28T03:56:46.762Z,12.428589
2023-05-28T03:57:55.467Z,12.539368
2023-05-28T03:59:05.126Z,12.599792
2023-05-28T04:00:13.764Z,12.579651
2023-05-28T04:01:23.445Z,12.56958
2023-05-28T04:02:32.260Z,12.56958
2023-05-28T04:03:40.936Z,12.579651
2023-05-28T04:04:50.538Z,12.619934
2023-05-28T04:05:59.154Z,12.650146
2023-05-28T04:07:07.825Z,12.670288
2023-05-28T04:08:17.502Z,12.750854
2023-05-28T04:09:25.143Z,12.871704
2023-05-28T04:10:34.860Z,13.002625
2023-05-28T04:11:43.538Z,13.133545
2023-05-28T04:12:52.200Z,13.254395
2023-05-28T04:14:01.855Z,13.375244
2023-05-28T04:15:10.614Z,13.435669
2023-05-28T04:16:19.324Z,13.465881
2023-05-28T04:17:28.998Z,13.415527
2023-05-28T04:18:37.611Z,13.385315
2023-05-28T04:19:47.332Z,13.334961
2023-05-28T04:20:55.974Z,13.334961
2023-05-28T04:22:04.617Z,13.314819
2023-05-28T04:23:14.309Z,13.284607
2023-05-28T04:24:22.986Z,13.224182
2023-05-28T04:25:33.416Z,13.224182
2023-05-28T04:26:42.320Z,13.234253
2023-05-28T04:27:51.011Z,13.284607
2023-05-28T04:29:01.636Z,13.375244
2023-05-28T04:30:10.319Z,13.465881
2023-05-28T04:31:18.956Z,13.536377
2023-05-28T04:32:28.642Z,13.566589
2023-05-28T04:33:36.263Z,13.667297
2023-05-28T04:34:44.949Z,13.747864
2023-05-28T04:35:54.834Z,13.82843
2023-05-28T04:37:02.252Z,13.868713
2023-05-28T04:38:11.916Z,13.888855
2023-05-28T04:39:21.572Z,13.929138
2023-05-28T04:40:30.256Z,13.969421
2023-05-28T04:41:39.909Z,14.049988
2023-05-28T04:42:48.567Z,14.110413
2023-05-28T04:43:57.233Z,14.120483
2023-05-28T04:45:06.895Z,14.170837
2023-05-28T04:46:15.580Z,14.140625
2023-05-28T04:47:25.281Z,14.140625
2023-05-28T04:48:34.910Z,14.20105
2023-05-28T04:49:43.561Z,14.301758
2023-05-28T04:50:53.234Z,14.372253
2023-05-28T04:52:01.886Z,14.442749
2023-05-28T04:53:11.540Z,14.483032
2023-05-28T04:54:20.207Z,14.543457
2023-05-28T04:55:29.891Z,14.603882
2023-05-28T04:56:39.567Z,14.654236
2023-05-28T04:57:48.234Z,14.70459
2023-05-28T04:58:57.924Z,14.70459
2023-05-28T05:00:07.627Z,14.765015
2023-05-28T05:01:16.412Z,14.805298
2023-05-28T05:02:26.067Z,14.885864
2023-05-28T05:03:33.721Z,14.986572
2023-05-28T05:04:42.338Z,15.036926
2023-05-28T05:05:52.234Z,15.036926
2023-05-28T05:07:01.681Z,15.107422
2023-05-28T05:08:10.376Z,15.137634
2023-05-28T05:09:19.028Z,15.167847
2023-05-28T05:10:26.671Z,15.177917
2023-05-28T05:11:36.379Z,15.167847
2023-05-28T05:12:45.030Z,15.107422
2023-05-28T05:13:53.702Z,15.238342
2023-05-28T05:15:03.357Z,15.268555
2023-05-28T05:16:12.101Z,15.288696
2023-05-28T05:17:21.641Z,15.389404
2023-05-28T05:18:29.333Z,15.419617
2023-05-28T05:19:38.026Z,15.439758
2023-05-28T05:20:47.697Z,15.389404
2023-05-28T05:21:56.345Z,15.520325
2023-05-28T05:23:05.067Z,15.58075
2023-05-28T05:24:14.725Z,15.641174
2023-05-28T05:25:23.380Z,15.731812
2023-05-28T05:26:33.050Z,15.570679
2023-05-28T05:27:42.715Z,15.349121
2023-05-28T05:28:51.427Z,15.429688
2023-05-28T05:30:01.092Z,15.621033
2023-05-28T05:31:08.859Z,15.802307
2023-05-28T05:32:17.498Z,15.822449
2023-05-28T05:33:27.177Z,15.923157
2023-05-28T05:34:34.848Z,15.882874
2023-05-28T05:35:44.514Z,15.913086
2023-05-28T05:36:53.157Z,16.013794
2023-05-28T05:38:00.816Z,16.054077
2023-05-28T05:39:10.516Z,16.09436
2023-05-28T05:40:19.188Z,16.124573
2023-05-28T05:41:27.835Z,16.285706
2023-05-28T05:42:37.550Z,16.386414
2023-05-28T05:43:45.211Z,16.456909
2023-05-28T05:44:53.865Z,16.507263
2023-05-28T05:46:03.541Z,16.577759
2023-05-28T05:47:11.200Z,16.537476
2023-05-28T05:48:22.619Z,16.557617
2023-05-28T05:49:30.530Z,16.577759
2023-05-28T05:50:40.179Z,16.557617
2023-05-28T05:51:49.866Z,16.527405
2023-05-28T05:52:57.822Z,16.456909
2023-05-28T05:54:07.476Z,16.507263
2023-05-28T05:55:16.135Z,16.557617
2023-05-28T05:56:24.802Z,16.567688
2023-05-28T05:57:34.463Z,16.708679
2023-05-28T05:58:41.106Z,16.809387
2023-05-28T05:59:49.767Z,16.900024
2023-05-28T06:00:59.413Z,17.041016
2023-05-28T06:02:07.217Z,17.020874
2023-05-28T06:03:16.861Z,16.960449
2023-05-28T06:04:26.594Z,17.041016
2023-05-28T06:05:36.195Z,17.09137
2023-05-28T06:06:45.867Z,17.09137
2023-05-28T06:07:55.646Z,17.081299
2023-05-28T06:09:04.333Z,17.22229
2023-05-28T06:10:13.996Z,17.272644
2023-05-28T06:11:23.695Z,17.272644
2023-05-28T06:12:33.397Z,17.333069
2023-05-28T06:13:41.053Z,17.312927
2023-05-28T06:14:49.731Z,17.453918
2023-05-28T06:15:59.410Z,17.544556
2023-05-28T06:17:07.067Z,17.59491
2023-05-28T06:18:15.703Z,17.675476
2023-05-28T06:19:25.397Z,17.715759
2023-05-28T06:20:33.144Z,17.665405
2023-05-28T06:21:42.717Z,17.735901
2023-05-28T06:22:52.375Z,17.826538
2023-05-28T06:24:00.564Z,17.917175
2023-05-28T06:25:10.245Z,18.048096
2023-05-28T06:26:18.973Z,18.108521
2023-05-28T06:27:27.651Z,18.128662
2023-05-28T06:28:37.365Z,18.22937
2023-05-28T06:29:45.029Z,18.279724
2023-05-28T06:30:54.717Z,18.259583
2023-05-28T06:32:03.364Z,18.259583
2023-05-28T06:33:12.074Z,18.289795
2023-05-28T06:34:21.777Z,18.380432
2023-05-28T06:35:29.361Z,18.430786
2023-05-28T06:36:38.044Z,18.531494
2023-05-28T06:37:47.688Z,18.591919
2023-05-28T06:38:55.345Z,18.652344
2023-05-28T06:40:05.045Z,18.682556
2023-05-28T06:41:13.748Z,18.753052
2023-05-28T06:42:21.412Z,18.813477
2023-05-28T06:43:31.122Z,18.924255
2023-05-28T06:44:38.817Z,18.994751
2023-05-28T06:45:48.493Z,19.085388
2023-05-28T06:46:58.253Z,19.155884
2023-05-28T06:48:05.878Z,19.306946
2023-05-28T06:49:15.483Z,19.407654
2023-05-28T06:50:25.175Z,19.518433
2023-05-28T06:51:34.845Z,19.558716
2023-05-28T06:52:44.739Z,19.669495
2023-05-28T06:53:53.167Z,19.880981
2023-05-28T06:55:02.843Z,19.820557
2023-05-28T06:56:10.508Z,19.850769
2023-05-28T06:57:19.167Z,19.99176
2023-05-28T06:58:28.812Z,20.11261
2023-05-28T06:59:36.506Z,20.314026
2023-05-28T07:00:46.237Z,20.465088
2023-05-28T07:01:53.925Z,20.596008
2023-05-28T07:03:02.568Z,20.696716
2023-05-28T07:04:12.267Z,20.817566
2023-05-28T07:05:20.954Z,20.958557
2023-05-28T07:06:29.580Z,20.968628
2023-05-28T07:07:39.258Z,21.049194
2023-05-28T07:08:48.037Z,20.98877
2023-05-28T07:09:57.671Z,21.180115
2023-05-28T07:11:06.365Z,21.270752
2023-05-28T07:12:15.080Z,21.361389
2023-05-28T07:13:24.759Z,21.431885
2023-05-28T07:14:33.449Z,21.300964
2023-05-28T07:15:42.085Z,21.462097
2023-05-28T07:16:51.820Z,21.542664
2023-05-28T07:17:59.542Z,21.663513
2023-05-28T07:19:09.163Z,21.764221
2023-05-28T07:20:18.900Z,21.955566
2023-05-28T07:21:28.497Z,21.905212
2023-05-28T07:22:38.183Z,21.824646
2023-05-28T07:23:45.963Z,21.522522
2023-05-28T07:24:55.632Z,21.75415
2023-05-28T07:26:05.265Z,21.945496
2023-05-28T07:27:14.932Z,22.056274
2023-05-28T07:28:24.598Z,22.096558
2023-05-28T07:29:33.341Z,22.146912
2023-05-28T07:30:40.929Z,22.24762
2023-05-28T07:31:50.704Z,22.438965
2023-05-28T07:32:58.383Z,22.438965
2023-05-28T07:34:07.028Z,22.690735
2023-05-28T07:35:16.752Z,22.902222
2023-05-28T07:36:24.448Z,23.083496
2023-05-28T07:37:34.094Z,23.214417
2023-05-28T07:38:42.806Z,23.305054
2023-05-28T07:39:51.479Z,23.425903
2023-05-28T07:41:01.177Z,23.355408
2023-05-28T07:42:10.816Z,23.214417
2023-05-28T07:43:19.603Z,23.284912
2023-05-28T07:44:29.274Z,23.38562
2023-05-28T07:45:38.925Z,23.607178
2023-05-28T07:46:48.586Z,23.808594
2023-05-28T07:47:57.359Z,23.979797
2023-05-28T07:49:06.063Z,24.100647
2023-05-28T07:50:15.780Z,24.020081
2023-05-28T07:51:23.501Z,23.879089
2023-05-28T07:52:32.208Z,23.979797
2023-05-28T07:53:41.848Z,24.060364
2023-05-28T07:54:50.513Z,24.110718
2023-05-28T07:56:00.161Z,24.26178
2023-05-28T07:57:08.881Z,24.422913
2023-05-28T07:58:17.588Z,24.543762
2023-05-28T07:59:27.280Z,24.664612
2023-05-28T08:00:36.996Z,24.654541
2023-05-28T08:01:46.655Z,24.755249
2023-05-28T08:02:56.440Z,24.886169
2023-05-28T08:04:04.091Z,24.926453
2023-05-28T08:05:13.707Z,24.876099
2023-05-28T08:06:22.385Z,24.916382
2023-05-28T08:07:29.032Z,24.956665
2023-05-28T08:08:38.669Z,24.986877
2023-05-28T08:09:46.432Z,24.835815
2023-05-28T08:10:56.089Z,24.725037
2023-05-28T08:12:05.743Z,24.855957
2023-05-28T08:13:15.437Z,24.755249
2023-05-28T08:14:25.096Z,24.76532
2023-05-28T08:15:34.776Z,24.694824
2023-05-28T08:16:42.445Z,24.835815
2023-05-28T08:17:52.196Z,24.835815
2023-05-28T08:19:00.734Z,25.027161
2023-05-28T08:20:10.438Z,25.107727
2023-05-28T08:21:19.076Z,25.168152
2023-05-28T08:22:27.768Z,25.258789
2023-05-28T08:23:37.401Z,25.309143
2023-05-28T08:24:46.031Z,25.289001
2023-05-28T08:25:55.819Z,25.530701
2023-05-28T08:27:05.377Z,25.701904
2023-05-28T08:28:14.056Z,25.681763
2023-05-28T08:29:22.767Z,25.852966
2023-05-28T08:30:32.894Z,26.064453
2023-05-28T08:31:41.450Z,26.205444
2023-05-28T08:32:51.120Z,26.104736
2023-05-28T08:34:00.779Z,26.175232
2023-05-28T08:35:10.509Z,26.134949
2023-05-28T08:36:20.194Z,26.004028
2023-05-28T08:37:29.855Z,25.993958
2023-05-28T08:38:39.521Z,26.185303
2023-05-28T08:39:49.179Z,26.39679
2023-05-28T08:40:56.875Z,26.557922
2023-05-28T08:42:06.600Z,26.678772
2023-05-28T08:43:16.165Z,26.77948
2023-05-28T08:44:25.864Z,26.990967
2023-05-28T08:45:35.528Z,26.930542
2023-05-28T08:46:44.232Z,26.729126
2023-05-28T08:47:52.900Z,26.598206
2023-05-28T08:49:03.522Z,26.65863
2023-05-28T08:50:12.196Z,26.477356
2023-05-28T08:51:20.876Z,26.376648
2023-05-28T08:52:30.550Z,26.376648
2023-05-28T08:53:40.254Z,26.578064
2023-05-28T08:54:48.908Z,26.729126
2023-05-28T08:55:57.552Z,26.769409
2023-05-28T08:57:07.226Z,26.65863
2023-05-28T08:58:14.876Z,26.880188
2023-05-28T08:59:24.560Z,27.03125
2023-05-28T09:00:34.565Z,27.081604
2023-05-28T09:01:44.184Z,27.111816
2023-05-28T09:02:54.085Z,27.262878
2023-05-28T09:04:02.648Z,27.373657
2023-05-28T09:05:11.267Z,27.363586
2023-05-28T09:06:20.036Z,27.202454
2023-05-28T09:07:27.690Z,27.363586
2023-05-28T09:08:37.418Z,27.323303
2023-05-28T09:09:48.001Z,27.293091
2023-05-28T09:10:55.776Z,27.353516
2023-05-28T09:12:05.464Z,27.514648
2023-05-28T09:13:15.112Z,27.484436
2023-05-28T09:14:22.764Z,27.393799
2023-05-28T09:15:32.468Z,27.262878
2023-05-28T09:16:41.196Z,27.222595
2023-05-28T09:17:50.760Z,27.101746
2023-05-28T09:19:00.439Z,27.051392
2023-05-28T09:20:08.149Z,26.950684
2023-05-28T09:21:17.790Z,26.990967
2023-05-28T09:22:26.483Z,26.950684
2023-05-28T09:23:35.141Z,26.849976
2023-05-28T09:24:43.833Z,26.880188
2023-05-28T09:25:52.611Z,27.001038
2023-05-28T09:27:02.147Z,27.262878
2023-05-28T09:28:11.783Z,27.353516
2023-05-28T09:29:20.932Z,27.303162
2023-05-28T09:30:30.792Z,27.484436
2023-05-28T09:31:39.526Z,27.796631
2023-05-28T09:32:47.260Z,28.018188
2023-05-28T09:33:56.896Z,28.03833
2023-05-28T09:35:04.572Z,27.816772
2023-05-28T09:36:13.274Z,27.705994
2023-05-28T09:37:22.969Z,27.705994
2023-05-28T09:38:31.626Z,27.857056
2023-05-28T09:39:41.375Z,27.816772
2023-05-28T09:40:50.054Z,27.887268
2023-05-28T09:41:58.725Z,27.766418
2023-05-28T09:43:08.447Z,27.705994
2023-05-28T09:44:17.027Z,27.736206
2023-05-28T09:45:25.704Z,27.746277
2023-05-28T09:46:35.412Z,27.897339
2023-05-28T09:47:44.063Z,27.957764
2023-05-28T09:48:52.696Z,28.03833
2023-05-28T09:50:02.577Z,28.189392
2023-05-28T09:51:11.602Z,28.189392
2023-05-28T09:52:21.022Z,28.330383
2023-05-28T09:53:30.165Z,28.330383
2023-05-28T09:54:38.891Z,28.451233
2023-05-28T09:55:48.583Z,28.592224
2023-05-28T09:56:56.298Z,28.783569
2023-05-28T09:58:07.036Z,28.843994
2023-05-28T09:59:14.748Z,28.934631
2023-05-28T10:00:23.644Z,29.065552
2023-05-28T10:01:33.258Z,29.186401
2023-05-28T10:02:41.960Z,29.216614
2023-05-28T10:03:49.676Z,29.156189
2023-05-28T10:04:59.284Z,29.156189
2023-05-28T10:06:08.955Z,29.236755
2023-05-28T10:07:18.745Z,29.287109
2023-05-28T10:08:27.389Z,29.065552
2023-05-28T10:09:35.053Z,29.115906
2023-05-28T10:10:44.779Z,28.672791
2023-05-28T10:11:53.425Z,28.66272
2023-05-28T10:13:01.097Z,28.753357
2023-05-28T10:14:10.800Z,28.622437
2023-05-28T10:15:18.639Z,28.320312
2023-05-28T10:16:28.315Z,28.390808
2023-05-28T10:17:37.947Z,28.471375
2023-05-28T10:18:46.620Z,28.753357
2023-05-28T10:19:56.281Z,28.934631
2023-05-28T10:21:06.001Z,29.216614
2023-05-28T10:22:14.653Z,29.337463
2023-05-28T10:23:24.334Z,29.407959
2023-05-28T10:24:32.982Z,29.387817
2023-05-28T10:25:43.094Z,29.407959
2023-05-28T10:26:51.739Z,29.508667
2023-05-28T10:28:00.392Z,29.488525
2023-05-28T10:29:10.084Z,29.226685
2023-05-28T10:30:17.737Z,29.448242
2023-05-28T10:31:26.419Z,29.629517
2023-05-28T10:32:36.106Z,29.488525
2023-05-28T10:33:44.795Z,29.559021
2023-05-28T10:34:54.429Z,29.357605
2023-05-28T10:36:04.124Z,29.407959
2023-05-28T10:37:11.806Z,29.609375
2023-05-28T10:38:21.566Z,29.679871
2023-05-28T10:39:29.214Z,29.679871
2023-05-28T10:40:37.898Z,29.508667
2023-05-28T10:41:47.573Z,29.41803
2023-05-28T10:42:55.335Z,29.468384
2023-05-28T10:44:05.026Z,29.468384
2023-05-28T10:45:13.670Z,29.559021
2023-05-28T10:46:21.379Z,29.508667
2023-05-28T10:47:30.013Z,29.236755
2023-05-28T10:48:38.685Z,29.196472
2023-05-28T10:49:48.387Z,29.075623
2023-05-28T10:50:57.016Z,29.16626
2023-05-28T10:52:04.669Z,29.256897
2023-05-28T10:53:14.323Z,29.216614
2023-05-28T10:54:23.986Z,29.317322
2023-05-28T10:55:33.685Z,29.569092
2023-05-28T10:56:43.350Z,29.528809
2023-05-28T10:57:51.008Z,29.538879
2023-05-28T10:58:59.807Z,29.689941
2023-05-28T11:00:07.524Z,30.002136
2023-05-28T11:01:16.223Z,30.274048
2023-05-28T11:02:26.111Z,30.05249
2023-05-28T11:03:34.643Z,29.810791
2023-05-28T11:04:44.240Z,29.871216
2023-05-28T11:05:53.984Z,29.941711
2023-05-28T11:07:02.561Z,29.901428
2023-05-28T11:08:12.245Z,30.05249
2023-05-28T11:09:21.076Z,30.233765
2023-05-28T11:10:31.093Z,30.30426
2023-05-28T11:11:39.357Z,30.535889
2023-05-28T11:12:49.033Z,30.616455
2023-05-28T11:13:58.688Z,30.545959
2023-05-28T11:15:08.347Z,30.686951
2023-05-28T11:16:16.030Z,30.67688
2023-05-28T11:17:25.727Z,30.686951
2023-05-28T11:18:34.376Z,30.455322
2023-05-28T11:19:43.062Z,30.42511
2023-05-28T11:20:52.807Z,30.566101
2023-05-28T11:22:01.408Z,30.525818
2023-05-28T11:23:11.105Z,30.505676
2023-05-28T11:24:20.741Z,30.374756
2023-05-28T11:25:29.439Z,30.354614
2023-05-28T11:26:39.112Z,30.344543
2023-05-28T11:27:47.769Z,30.243835
2023-05-28T11:28:56.456Z,30.314331
2023-05-28T11:30:07.217Z,30.586243
2023-05-28T11:31:15.910Z,30.586243
2023-05-28T11:32:25.605Z,30.767517
2023-05-28T11:33:35.337Z,31.0495
2023-05-28T11:34:44.067Z,31.250916
2023-05-28T11:35:53.895Z,31.371765
2023-05-28T11:37:02.396Z,31.542969
2023-05-28T11:38:11.040Z,30.868225
2023-05-28T11:39:20.753Z,31.029358
2023-05-28T11:40:29.776Z,31.341553
2023-05-28T11:41:38.099Z,31.593323
2023-05-28T11:42:47.826Z,31.643677
2023-05-28T11:43:56.475Z,31.694031
2023-05-28T11:45:06.119Z,31.613464
2023-05-28T11:46:14.863Z,31.744385
2023-05-28T11:47:23.553Z,32.06665
2023-05-28T11:48:33.221Z,32.137146
2023-05-28T11:49:40.897Z,31.613464
2023-05-28T11:50:50.633Z,31.281128
2023-05-28T11:52:00.282Z,31.422119
2023-05-28T11:53:09.033Z,31.250916
2023-05-28T11:54:18.701Z,31.442261
2023-05-28T11:55:26.375Z,31.623535
2023-05-28T11:56:35.061Z,32.026367
2023-05-28T11:57:44.741Z,32.076721
2023-05-28T11:58:54.388Z,31.744385
2023-05-28T12:00:04.039Z,31.663818
2023-05-28T12:01:12.732Z,31.522827
2023-05-28T12:02:21.405Z,31.744385
2023-05-28T12:03:31.133Z,31.996155
2023-05-28T12:04:38.721Z,32.036438
2023-05-28T12:05:47.406Z,32.1875
2023-05-28T12:06:57.206Z,31.845093
2023-05-28T12:08:06.820Z,31.925659
2023-05-28T12:09:16.462Z,32.257996
2023-05-28T12:10:25.103Z,32.006226
2023-05-28T12:11:33.792Z,31.996155
2023-05-28T12:12:43.481Z,31.43219
2023-05-28T12:13:52.268Z,31.291199
2023-05-28T12:15:01.915Z,31.391907
2023-05-28T12:16:11.664Z,31.31134
2023-05-28T12:17:19.510Z,31.341553
2023-05-28T12:18:29.142Z,31.835022
2023-05-28T12:19:37.809Z,31.623535
2023-05-28T12:20:46.466Z,31.492615
2023-05-28T12:21:56.156Z,31.43219
2023-05-28T12:23:04.874Z,31.583252
2023-05-28T12:24:14.703Z,31.81488
2023-05-28T12:25:24.185Z,32.227783
2023-05-28T12:26:32.917Z,32.30835
2023-05-28T12:27:42.572Z,32.741394
2023-05-28T12:28:52.212Z,33.07373
2023-05-28T12:29:59.940Z,33.305359
2023-05-28T12:31:09.643Z,33.385925
2023-05-28T12:32:19.304Z,33.5672
2023-05-28T12:33:28.951Z,33.224792
2023-05-28T12:34:38.632Z,33.093872
2023-05-28T12:35:46.378Z,33.154297
2023-05-28T12:36:55.021Z,32.519836
2023-05-28T12:38:04.665Z,32.328491
2023-05-28T12:39:12.350Z,31.653748
2023-05-28T12:40:22.019Z,31.845093
2023-05-28T12:41:29.706Z,32.157288
2023-05-28T12:42:38.382Z,32.409058
2023-05-28T12:43:48.034Z,32.519836
2023-05-28T12:44:56.684Z,32.801819
2023-05-28T12:46:06.391Z,32.771606
2023-05-28T12:47:16.023Z,32.409058
2023-05-28T12:48:24.737Z,32.781677
2023-05-28T12:49:33.508Z,32.892456
2023-05-28T12:50:43.139Z,32.801819
2023-05-28T12:51:52.783Z,32.640686
2023-05-28T12:53:00.666Z,32.509766
2023-05-28T12:54:10.313Z,32.600403
2023-05-28T12:55:19.985Z,32.509766
2023-05-28T12:56:28.628Z,32.852173
2023-05-28T12:57:38.466Z,32.932739
2023-05-28T12:58:46.966Z,32.922668
2023-05-28T12:59:55.619Z,32.892456
2023-05-28T13:01:05.341Z,32.711182
2023-05-28T13:02:12.038Z,33.174438
2023-05-28T13:03:21.069Z,33.637695
2023-05-28T13:04:30.544Z,33.798828
2023-05-28T13:05:38.319Z,33.456421
2023-05-28T13:06:48.039Z,33.31543
2023-05-28T13:07:56.712Z,33.839111
2023-05-28T13:09:05.414Z,33.829041
2023-05-28T13:10:15.484Z,33.607483